sensor_id;sensor_type;location;lat;lon;timestamp;P1;durP1;ratioP1;P2;durP2;ratioP2
14396;SDS011;50653;0.000;0.000;2022-07-10T00:00:36;4.57;;;4.03;;
14396;SDS011;50653;0.000;0.000;2022-07-10T00:03:03;4.90;;;4.40;;
14396;SDS011;50653;0.000;0.000;2022-07-10T00:05:29;4.10;;;3.90;;
14396;SDS011;50653;0.000;0.000;2022-07-10T00:07:55;4.53;;;3.70;;
14396;SDS011;50653;0.000;0.000;2022-07-10T00:10:24;3.70;;;3.50;;
14396;SDS011;50653;0.000;0.000;2022-07-10T00:12:50;3.77;;;3.47;;
14396;SDS011;50653;0.000;0.000;2022-07-10T00:15:17;4.10;;;3.00;;
14396;SDS011;50653;0.000;0.000;2022-07-10T00:17:43;3.50;;;3.23;;
14396;SDS011;50653;0.000;0.000;2022-07-10T00:20:09;3.83;;;3.30;;
14396;SDS011;50653;0.000;0.000;2022-07-10T00:22:36;2.70;;;2.50;;
14396;SDS011;50653;0.000;0.000;2022-07-10T00:25:05;3.37;;;3.10;;
14396;SDS011;50653;0.000;0.000;2022-07-10T00:27:33;3.30;;;3.10;;
14396;SDS011;50653;0.000;0.000;2022-07-10T00:29:59;3.50;;;3.10;;
14396;SDS011;50653;0.000;0.000;2022-07-10T00:32:24;5.87;;;3.60;;
14396;SDS011;50653;0.000;0.000;2022-07-10T00:34:50;5.73;;;4.00;;
14396;SDS011;50653;0.000;0.000;2022-07-10T00:37:16;3.80;;;3.60;;
14396;SDS011;50653;0.000;0.000;2022-07-10T00:39:42;4.60;;;2.73;;
14396;SDS011;50653;0.000;0.000;2022-07-10T00:42:09;3.00;;;2.80;;
14396;SDS011;50653;0.000;0.000;2022-07-10T00:44:37;3.57;;;2.50;;
14396;SDS011;50653;0.000;0.000;2022-07-10T00:47:06;3.90;;;3.37;;
14396;SDS011;50653;0.000;0.000;2022-07-10T00:49:34;3.40;;;3.10;;
14396;SDS011;50653;0.000;0.000;2022-07-10T00:52:02;3.33;;;3.10;;
14396;SDS011;50653;0.000;0.000;2022-07-10T00:54:31;3.90;;;3.60;;
14396;SDS011;50653;0.000;0.000;2022-07-10T00:56:58;3.30;;;2.70;;
14396;SDS011;50653;0.000;0.000;2022-07-10T00:59:25;3.30;;;3.10;;
14396;SDS011;50653;0.000;0.000;2022-07-10T01:01:51;3.50;;;3.30;;
14396;SDS011;50653;0.000;0.000;2022-07-10T01:04:17;2.90;;;2.70;;
14396;SDS011;50653;0.000;0.000;2022-07-10T01:06:43;2.43;;;2.33;;
14396;SDS011;50653;0.000;0.000;2022-07-10T01:09:08;2.73;;;2.63;;
14396;SDS011;50653;0.000;0.000;2022-07-10T01:11:34;4.83;;;4.63;;
14396;SDS011;50653;0.000;0.000;2022-07-10T01:14:02;4.03;;;3.77;;
14396;SDS011;50653;0.000;0.000;2022-07-10T01:16:28;3.90;;;3.60;;
14396;SDS011;50653;0.000;0.000;2022-07-10T01:18:54;3.60;;;3.40;;
14396;SDS011;50653;0.000;0.000;2022-07-10T01:21:30;3.50;;;3.30;;
14396;SDS011;50653;0.000;0.000;2022-07-10T01:23:58;3.63;;;3.33;;
14396;SDS011;50653;0.000;0.000;2022-07-10T01:26:24;4.03;;;3.83;;
14396;SDS011;50653;0.000;0.000;2022-07-10T01:28:51;3.33;;;3.10;;
14396;SDS011;50653;0.000;0.000;2022-07-10T01:31:18;4.23;;;4.00;;
14396;SDS011;50653;0.000;0.000;2022-07-10T01:33:45;3.10;;;3.00;;
14396;SDS011;50653;0.000;0.000;2022-07-10T01:36:12;4.07;;;3.47;;
14396;SDS011;50653;0.000;0.000;2022-07-10T01:38:38;4.23;;;3.20;;
14396;SDS011;50653;0.000;0.000;2022-07-10T01:41:05;4.17;;;3.80;;
14396;SDS011;50653;0.000;0.000;2022-07-10T01:43:30;4.10;;;3.70;;
14396;SDS011;50653;0.000;0.000;2022-07-10T01:45:56;4.27;;;4.07;;
14396;SDS011;50653;0.000;0.000;2022-07-10T01:48:22;3.60;;;3.30;;
14396;SDS011;50653;0.000;0.000;2022-07-10T01:50:47;3.80;;;3.50;;
14396;SDS011;50653;0.000;0.000;2022-07-10T01:53:13;3.57;;;3.37;;
14396;SDS011;50653;0.000;0.000;2022-07-10T01:55:39;3.47;;;3.27;;
14396;SDS011;50653;0.000;0.000;2022-07-10T01:58:04;3.93;;;3.77;;
14396;SDS011;50653;0.000;0.000;2022-07-10T02:00:30;3.57;;;3.40;;
14396;SDS011;50653;0.000;0.000;2022-07-10T02:02:55;3.90;;;3.70;;
14396;SDS011;50653;0.000;0.000;2022-07-10T02:05:40;5.70;;;4.00;;
14396;SDS011;50653;0.000;0.000;2022-07-10T02:08:05;4.20;;;3.77;;
14396;SDS011;50653;0.000;0.000;2022-07-10T02:10:31;4.67;;;4.37;;
14396;SDS011;50653;0.000;0.000;2022-07-10T02:12:57;3.87;;;3.57;;
14396;SDS011;50653;0.000;0.000;2022-07-10T02:15:23;4.77;;;4.40;;
14396;SDS011;50653;0.000;0.000;2022-07-10T02:17:49;3.40;;;3.20;;
14396;SDS011;50653;0.000;0.000;2022-07-10T02:20:14;4.90;;;4.47;;
14396;SDS011;50653;0.000;0.000;2022-07-10T02:22:40;4.30;;;3.60;;
14396;SDS011;50653;0.000;0.000;2022-07-10T02:25:07;10.57;;;9.67;;
14396;SDS011;50653;0.000;0.000;2022-07-10T02:27:33;4.43;;;4.23;;
14396;SDS011;50653;0.000;0.000;2022-07-10T02:29:59;3.40;;;3.20;;
14396;SDS011;50653;0.000;0.000;2022-07-10T02:32:24;3.83;;;3.63;;
14396;SDS011;50653;0.000;0.000;2022-07-10T02:34:50;3.73;;;3.40;;
14396;SDS011;50653;0.000;0.000;2022-07-10T02:37:16;3.57;;;3.30;;
14396;SDS011;50653;0.000;0.000;2022-07-10T02:39:41;2.90;;;2.80;;
14396;SDS011;50653;0.000;0.000;2022-07-10T02:42:07;4.37;;;4.10;;
14396;SDS011;50653;0.000;0.000;2022-07-10T02:44:33;3.30;;;3.03;;
14396;SDS011;50653;0.000;0.000;2022-07-10T02:46:58;4.33;;;4.13;;
14396;SDS011;50653;0.000;0.000;2022-07-10T02:49:24;3.70;;;3.50;;
14396;SDS011;50653;0.000;0.000;2022-07-10T02:51:49;7.00;;;3.93;;
14396;SDS011;50653;0.000;0.000;2022-07-10T02:54:15;10.10;;;4.10;;
14396;SDS011;50653;0.000;0.000;2022-07-10T02:56:41;5.37;;;4.87;;
14396;SDS011;50653;0.000;0.000;2022-07-10T02:59:07;4.87;;;4.63;;
14396;SDS011;50653;0.000;0.000;2022-07-10T03:01:33;4.33;;;4.13;;
14396;SDS011;50653;0.000;0.000;2022-07-10T03:03:58;6.37;;;5.57;;
14396;SDS011;50653;0.000;0.000;2022-07-10T03:06:26;4.80;;;4.50;;
14396;SDS011;50653;0.000;0.000;2022-07-10T03:08:52;5.57;;;5.07;;
14396;SDS011;50653;0.000;0.000;2022-07-10T03:11:18;4.87;;;4.57;;
14396;SDS011;50653;0.000;0.000;2022-07-10T03:13:43;4.77;;;4.47;;
14396;SDS011;50653;0.000;0.000;2022-07-10T03:16:09;4.53;;;4.23;;
14396;SDS011;50653;0.000;0.000;2022-07-10T03:18:35;5.70;;;5.20;;
14396;SDS011;50653;0.000;0.000;2022-07-10T03:21:00;5.50;;;5.10;;
14396;SDS011;50653;0.000;0.000;2022-07-10T03:23:26;6.13;;;5.83;;
14396;SDS011;50653;0.000;0.000;2022-07-10T03:25:52;7.20;;;6.80;;
14396;SDS011;50653;0.000;0.000;2022-07-10T03:28:20;6.07;;;5.77;;
14396;SDS011;50653;0.000;0.000;2022-07-10T03:30:46;6.53;;;6.03;;
14396;SDS011;50653;0.000;0.000;2022-07-10T03:33:12;6.43;;;6.13;;
14396;SDS011;50653;0.000;0.000;2022-07-10T03:35:37;5.47;;;4.93;;
14396;SDS011;50653;0.000;0.000;2022-07-10T03:38:03;7.27;;;6.87;;
14396;SDS011;50653;0.000;0.000;2022-07-10T03:40:29;9.43;;;6.40;;
14396;SDS011;50653;0.000;0.000;2022-07-10T03:42:54;6.37;;;5.97;;
14396;SDS011;50653;0.000;0.000;2022-07-10T03:45:20;6.30;;;5.80;;
14396;SDS011;50653;0.000;0.000;2022-07-10T03:47:46;6.57;;;6.07;;
14396;SDS011;50653;0.000;0.000;2022-07-10T03:50:11;6.23;;;5.90;;
14396;SDS011;50653;0.000;0.000;2022-07-10T03:52:37;6.00;;;5.53;;
14396;SDS011;50653;0.000;0.000;2022-07-10T03:55:02;6.80;;;6.10;;
14396;SDS011;50653;0.000;0.000;2022-07-10T03:57:28;6.47;;;6.17;;
14396;SDS011;50653;0.000;0.000;2022-07-10T04:00:12;8.67;;;7.07;;
14396;SDS011;50653;0.000;0.000;2022-07-10T04:02:38;6.77;;;6.47;;
14396;SDS011;50653;0.000;0.000;2022-07-10T04:05:08;6.67;;;6.00;;
14396;SDS011;50653;0.000;0.000;2022-07-10T04:07:35;6.87;;;6.30;;
14396;SDS011;50653;0.000;0.000;2022-07-10T04:10:01;7.67;;;7.13;;
14396;SDS011;50653;0.000;0.000;2022-07-10T04:12:27;5.90;;;5.40;;
14396;SDS011;50653;0.000;0.000;2022-07-10T04:14:52;6.60;;;6.30;;
14396;SDS011;50653;0.000;0.000;2022-07-10T04:17:18;6.80;;;6.37;;
14396;SDS011;50653;0.000;0.000;2022-07-10T04:19:44;7.43;;;7.00;;
14396;SDS011;50653;0.000;0.000;2022-07-10T04:22:11;12.53;;;11.33;;
14396;SDS011;50653;0.000;0.000;2022-07-10T04:24:37;19.80;;;16.90;;
14396;SDS011;50653;0.000;0.000;2022-07-10T04:27:03;10.97;;;9.87;;
14396;SDS011;50653;0.000;0.000;2022-07-10T04:29:29;11.50;;;9.30;;
14396;SDS011;50653;0.000;0.000;2022-07-10T04:31:54;9.40;;;8.63;;
14396;SDS011;50653;0.000;0.000;2022-07-10T04:34:20;9.27;;;8.37;;
14396;SDS011;50653;0.000;0.000;2022-07-10T04:36:46;27.90;;;20.10;;
14396;SDS011;50653;0.000;0.000;2022-07-10T04:39:11;20.17;;;16.17;;
14396;SDS011;50653;0.000;0.000;2022-07-10T04:41:37;7.93;;;7.27;;
14396;SDS011;50653;0.000;0.000;2022-07-10T04:44:02;10.80;;;9.87;;
14396;SDS011;50653;0.000;0.000;2022-07-10T04:46:28;7.80;;;7.30;;
14396;SDS011;50653;0.000;0.000;2022-07-10T04:48:54;6.97;;;6.57;;
14396;SDS011;50653;0.000;0.000;2022-07-10T04:51:20;8.00;;;6.17;;
14396;SDS011;50653;0.000;0.000;2022-07-10T04:53:45;6.60;;;6.30;;
14396;SDS011;50653;0.000;0.000;2022-07-10T04:56:12;6.80;;;6.30;;
14396;SDS011;50653;0.000;0.000;2022-07-10T04:58:38;6.77;;;6.27;;
14396;SDS011;50653;0.000;0.000;2022-07-10T05:01:03;8.07;;;7.33;;
14396;SDS011;50653;0.000;0.000;2022-07-10T05:03:29;6.57;;;6.27;;
14396;SDS011;50653;0.000;0.000;2022-07-10T05:05:55;6.23;;;5.90;;
14396;SDS011;50653;0.000;0.000;2022-07-10T05:08:20;7.23;;;6.67;;
14396;SDS011;50653;0.000;0.000;2022-07-10T05:10:46;8.07;;;6.43;;
14396;SDS011;50653;0.000;0.000;2022-07-10T05:13:11;6.30;;;5.80;;
14396;SDS011;50653;0.000;0.000;2022-07-10T05:15:37;7.37;;;6.60;;
14396;SDS011;50653;0.000;0.000;2022-07-10T05:18:03;7.60;;;7.10;;
14396;SDS011;50653;0.000;0.000;2022-07-10T05:20:29;6.07;;;5.70;;
14396;SDS011;50653;0.000;0.000;2022-07-10T05:22:55;13.53;;;9.23;;
14396;SDS011;50653;0.000;0.000;2022-07-10T05:25:21;8.70;;;8.10;;
14396;SDS011;50653;0.000;0.000;2022-07-10T05:27:47;7.73;;;7.13;;
14396;SDS011;50653;0.000;0.000;2022-07-10T05:30:13;6.80;;;6.37;;
14396;SDS011;50653;0.000;0.000;2022-07-10T05:32:45;7.00;;;6.50;;
14396;SDS011;50653;0.000;0.000;2022-07-10T05:35:11;7.37;;;6.87;;
14396;SDS011;50653;0.000;0.000;2022-07-10T05:37:38;7.77;;;6.97;;
14396;SDS011;50653;0.000;0.000;2022-07-10T05:40:04;7.40;;;6.90;;
14396;SDS011;50653;0.000;0.000;2022-07-10T05:42:30;7.60;;;7.00;;
14396;SDS011;50653;0.000;0.000;2022-07-10T05:44:55;7.93;;;7.33;;
14396;SDS011;50653;0.000;0.000;2022-07-10T05:47:21;7.80;;;7.13;;
14396;SDS011;50653;0.000;0.000;2022-07-10T05:49:47;9.20;;;8.40;;
14396;SDS011;50653;0.000;0.000;2022-07-10T05:52:12;7.00;;;6.60;;
14396;SDS011;50653;0.000;0.000;2022-07-10T05:54:38;8.53;;;7.93;;
14396;SDS011;50653;0.000;0.000;2022-07-10T05:57:04;7.30;;;6.90;;
14396;SDS011;50653;0.000;0.000;2022-07-10T05:59:33;7.67;;;7.17;;
14396;SDS011;50653;0.000;0.000;2022-07-10T06:01:59;6.57;;;6.27;;
14396;SDS011;50653;0.000;0.000;2022-07-10T06:04:25;7.43;;;7.03;;
14396;SDS011;50653;0.000;0.000;2022-07-10T06:06:51;8.73;;;7.67;;
14396;SDS011;50653;0.000;0.000;2022-07-10T06:09:17;6.70;;;6.40;;
14396;SDS011;50653;0.000;0.000;2022-07-10T06:11:43;7.77;;;6.80;;
14396;SDS011;50653;0.000;0.000;2022-07-10T06:14:10;8.30;;;7.80;;
14396;SDS011;50653;0.000;0.000;2022-07-10T06:16:37;7.83;;;7.33;;
14396;SDS011;50653;0.000;0.000;2022-07-10T06:19:02;8.37;;;7.77;;
14396;SDS011;50653;0.000;0.000;2022-07-10T06:21:28;7.73;;;7.33;;
14396;SDS011;50653;0.000;0.000;2022-07-10T06:23:54;6.80;;;6.40;;
14396;SDS011;50653;0.000;0.000;2022-07-10T06:26:19;6.63;;;6.20;;
14396;SDS011;50653;0.000;0.000;2022-07-10T06:28:45;7.67;;;6.93;;
14396;SDS011;50653;0.000;0.000;2022-07-10T06:31:11;7.03;;;6.57;;
14396;SDS011;50653;0.000;0.000;2022-07-10T06:33:37;6.93;;;6.53;;
14396;SDS011;50653;0.000;0.000;2022-07-10T06:36:03;5.70;;;5.50;;
14396;SDS011;50653;0.000;0.000;2022-07-10T06:38:29;6.30;;;5.80;;
14396;SDS011;50653;0.000;0.000;2022-07-10T06:40:54;6.30;;;5.80;;
14396;SDS011;50653;0.000;0.000;2022-07-10T06:43:20;6.33;;;6.00;;
14396;SDS011;50653;0.000;0.000;2022-07-10T06:45:45;6.43;;;6.23;;
14396;SDS011;50653;0.000;0.000;2022-07-10T06:48:12;6.33;;;5.87;;
14396;SDS011;50653;0.000;0.000;2022-07-10T06:50:37;6.07;;;5.70;;
14396;SDS011;50653;0.000;0.000;2022-07-10T06:53:03;6.10;;;5.80;;
14396;SDS011;50653;0.000;0.000;2022-07-10T06:55:29;6.47;;;6.17;;
14396;SDS011;50653;0.000;0.000;2022-07-10T06:57:56;7.00;;;6.50;;
14396;SDS011;50653;0.000;0.000;2022-07-10T07:00:21;6.67;;;6.37;;
14396;SDS011;50653;0.000;0.000;2022-07-10T07:02:47;5.50;;;5.20;;
14396;SDS011;50653;0.000;0.000;2022-07-10T07:05:13;6.80;;;6.30;;
14396;SDS011;50653;0.000;0.000;2022-07-10T07:07:38;5.63;;;5.23;;
14396;SDS011;50653;0.000;0.000;2022-07-10T07:10:04;6.80;;;6.30;;
14396;SDS011;50653;0.000;0.000;2022-07-10T07:12:31;6.43;;;6.10;;
14396;SDS011;50653;0.000;0.000;2022-07-10T07:14:56;6.40;;;6.00;;
14396;SDS011;50653;0.000;0.000;2022-07-10T07:17:22;6.37;;;6.07;;
14396;SDS011;50653;0.000;0.000;2022-07-10T07:19:50;7.10;;;6.40;;
14396;SDS011;50653;0.000;0.000;2022-07-10T07:22:35;7.40;;;6.83;;
14396;SDS011;50653;0.000;0.000;2022-07-10T07:25:19;7.63;;;7.10;;
14396;SDS011;50653;0.000;0.000;2022-07-10T07:27:45;7.23;;;6.63;;
14396;SDS011;50653;0.000;0.000;2022-07-10T07:30:12;7.60;;;7.20;;
14396;SDS011;50653;0.000;0.000;2022-07-10T07:32:42;7.37;;;6.97;;
14396;SDS011;50653;0.000;0.000;2022-07-10T07:35:10;7.10;;;6.70;;
14396;SDS011;50653;0.000;0.000;2022-07-10T07:37:44;7.63;;;7.00;;
14396;SDS011;50653;0.000;0.000;2022-07-10T07:40:12;7.63;;;7.13;;
14396;SDS011;50653;0.000;0.000;2022-07-10T07:42:39;8.20;;;7.70;;
14396;SDS011;50653;0.000;0.000;2022-07-10T07:45:06;7.73;;;7.23;;
14396;SDS011;50653;0.000;0.000;2022-07-10T07:47:49;8.30;;;7.80;;
14396;SDS011;50653;0.000;0.000;2022-07-10T07:50:23;7.03;;;6.63;;
14396;SDS011;50653;0.000;0.000;2022-07-10T07:52:57;7.67;;;7.27;;
14396;SDS011;50653;0.000;0.000;2022-07-10T07:55:23;6.87;;;6.57;;
14396;SDS011;50653;0.000;0.000;2022-07-10T07:57:53;7.60;;;7.17;;
14396;SDS011;50653;0.000;0.000;2022-07-10T08:00:20;7.60;;;7.10;;
14396;SDS011;50653;0.000;0.000;2022-07-10T08:02:47;7.60;;;7.10;;
14396;SDS011;50653;0.000;0.000;2022-07-10T08:05:13;7.57;;;7.07;;
14396;SDS011;50653;0.000;0.000;2022-07-10T08:07:40;7.43;;;7.00;;
14396;SDS011;50653;0.000;0.000;2022-07-10T08:10:14;7.70;;;7.20;;
14396;SDS011;50653;0.000;0.000;2022-07-10T08:12:42;9.47;;;8.90;;
14396;SDS011;50653;0.000;0.000;2022-07-10T08:15:09;7.83;;;7.23;;
14396;SDS011;50653;0.000;0.000;2022-07-10T08:17:35;7.57;;;7.07;;
14396;SDS011;50653;0.000;0.000;2022-07-10T08:20:05;7.30;;;6.90;;
14396;SDS011;50653;0.000;0.000;2022-07-10T08:22:32;8.43;;;8.03;;
14396;SDS011;50653;0.000;0.000;2022-07-10T08:24:58;6.87;;;6.57;;
14396;SDS011;50653;0.000;0.000;2022-07-10T08:27:24;7.40;;;6.90;;
14396;SDS011;50653;0.000;0.000;2022-07-10T08:29:50;7.30;;;6.90;;
14396;SDS011;50653;0.000;0.000;2022-07-10T08:32:15;8.03;;;7.43;;
14396;SDS011;50653;0.000;0.000;2022-07-10T08:34:41;6.90;;;6.57;;
14396;SDS011;50653;0.000;0.000;2022-07-10T08:37:07;5.57;;;5.30;;
14396;SDS011;50653;0.000;0.000;2022-07-10T08:39:33;6.60;;;6.20;;
14396;SDS011;50653;0.000;0.000;2022-07-10T08:41:59;5.90;;;5.27;;
14396;SDS011;50653;0.000;0.000;2022-07-10T08:44:26;5.50;;;5.30;;
14396;SDS011;50653;0.000;0.000;2022-07-10T08:46:53;6.27;;;5.60;;
14396;SDS011;50653;0.000;0.000;2022-07-10T08:49:18;4.73;;;4.40;;
14396;SDS011;50653;0.000;0.000;2022-07-10T08:51:58;5.93;;;5.63;;
14396;SDS011;50653;0.000;0.000;2022-07-10T08:54:30;4.93;;;4.73;;
14396;SDS011;50653;0.000;0.000;2022-07-10T08:57:00;5.47;;;5.23;;
14396;SDS011;50653;0.000;0.000;2022-07-10T08:59:27;5.37;;;5.07;;
14396;SDS011;50653;0.000;0.000;2022-07-10T09:01:53;5.13;;;4.83;;
14396;SDS011;50653;0.000;0.000;2022-07-10T09:04:21;5.23;;;5.03;;
14396;SDS011;50653;0.000;0.000;2022-07-10T09:06:47;5.60;;;5.30;;
14396;SDS011;50653;0.000;0.000;2022-07-10T09:09:13;4.93;;;4.70;;
14396;SDS011;50653;0.000;0.000;2022-07-10T09:11:39;5.10;;;4.80;;
14396;SDS011;50653;0.000;0.000;2022-07-10T09:14:07;4.70;;;4.50;;
14396;SDS011;50653;0.000;0.000;2022-07-10T09:16:40;5.47;;;5.17;;
14396;SDS011;50653;0.000;0.000;2022-07-10T09:19:17;5.97;;;5.57;;
14396;SDS011;50653;0.000;0.000;2022-07-10T09:21:51;5.17;;;4.97;;
14396;SDS011;50653;0.000;0.000;2022-07-10T09:24:18;5.77;;;5.57;;
14396;SDS011;50653;0.000;0.000;2022-07-10T09:26:58;6.03;;;5.73;;
14396;SDS011;50653;0.000;0.000;2022-07-10T09:29:29;5.63;;;5.37;;
14396;SDS011;50653;0.000;0.000;2022-07-10T09:32:01;5.60;;;5.30;;
14396;SDS011;50653;0.000;0.000;2022-07-10T09:34:34;7.77;;;7.30;;
14396;SDS011;50653;0.000;0.000;2022-07-10T09:47:37;4.80;;;4.50;;
14396;SDS011;50653;0.000;0.000;2022-07-10T09:50:03;4.33;;;4.13;;
14396;SDS011;50653;0.000;0.000;2022-07-10T09:52:29;3.73;;;3.53;;
14396;SDS011;50653;0.000;0.000;2022-07-10T09:54:57;5.43;;;5.03;;
14396;SDS011;50653;0.000;0.000;2022-07-10T09:57:27;4.37;;;4.17;;
14396;SDS011;50653;0.000;0.000;2022-07-10T09:59:55;4.00;;;3.80;;
14396;SDS011;50653;0.000;0.000;2022-07-10T10:02:21;5.23;;;4.87;;
14396;SDS011;50653;0.000;0.000;2022-07-10T10:04:48;5.20;;;5.00;;
14396;SDS011;50653;0.000;0.000;2022-07-10T10:07:14;6.93;;;5.03;;
14396;SDS011;50653;0.000;0.000;2022-07-10T10:09:52;4.60;;;4.40;;
14396;SDS011;50653;0.000;0.000;2022-07-10T10:15:21;4.80;;;4.20;;
14396;SDS011;50653;0.000;0.000;2022-07-10T10:17:48;4.53;;;4.23;;
14396;SDS011;50653;0.000;0.000;2022-07-10T10:20:16;5.97;;;4.77;;
14396;SDS011;50653;0.000;0.000;2022-07-10T10:23:03;4.87;;;4.60;;
14396;SDS011;50653;0.000;0.000;2022-07-10T10:25:32;5.00;;;4.60;;
14396;SDS011;50653;0.000;0.000;2022-07-10T10:28:01;4.37;;;4.17;;
14396;SDS011;50653;0.000;0.000;2022-07-10T10:30:31;4.80;;;4.50;;
14396;SDS011;50653;0.000;0.000;2022-07-10T10:32:58;4.60;;;4.40;;
14396;SDS011;50653;0.000;0.000;2022-07-10T10:35:41;3.67;;;3.57;;
14396;SDS011;50653;0.000;0.000;2022-07-10T10:38:12;3.73;;;3.53;;
14396;SDS011;50653;0.000;0.000;2022-07-10T10:40:38;4.47;;;4.13;;
14396;SDS011;50653;0.000;0.000;2022-07-10T10:43:17;3.70;;;3.60;;
14396;SDS011;50653;0.000;0.000;2022-07-10T10:45:48;3.90;;;3.70;;
14396;SDS011;50653;0.000;0.000;2022-07-10T10:48:18;3.57;;;3.37;;
14396;SDS011;50653;0.000;0.000;2022-07-10T10:50:48;5.97;;;5.67;;
14396;SDS011;50653;0.000;0.000;2022-07-10T10:53:18;4.37;;;4.07;;
14396;SDS011;50653;0.000;0.000;2022-07-10T10:58:36;3.73;;;3.43;;
14396;SDS011;50653;0.000;0.000;2022-07-10T11:01:06;3.47;;;3.30;;
14396;SDS011;50653;0.000;0.000;2022-07-10T11:12:47;2.90;;;2.80;;
14396;SDS011;50653;0.000;0.000;2022-07-10T11:15:22;3.23;;;2.93;;
14396;SDS011;50653;0.000;0.000;2022-07-10T11:17:48;2.50;;;2.40;;
14396;SDS011;50653;0.000;0.000;2022-07-10T11:20:16;2.60;;;2.40;;
14396;SDS011;50653;0.000;0.000;2022-07-10T11:22:43;2.70;;;2.50;;
14396;SDS011;50653;0.000;0.000;2022-07-10T11:25:31;5.17;;;3.70;;
14396;SDS011;50653;0.000;0.000;2022-07-10T11:31:24;3.80;;;3.60;;
14396;SDS011;50653;0.000;0.000;2022-07-10T11:34:13;3.67;;;3.47;;
14396;SDS011;50653;0.000;0.000;2022-07-10T11:36:39;3.40;;;3.20;;
14396;SDS011;50653;0.000;0.000;2022-07-10T11:50:26;4.10;;;3.53;;
14396;SDS011;50653;0.000;0.000;2022-07-10T11:52:54;2.83;;;2.73;;
14396;SDS011;50653;0.000;0.000;2022-07-10T11:55:21;3.80;;;3.50;;
14396;SDS011;50653;0.000;0.000;2022-07-10T11:57:55;3.07;;;2.87;;
14396;SDS011;50653;0.000;0.000;2022-07-10T12:00:22;4.60;;;3.33;;
14396;SDS011;50653;0.000;0.000;2022-07-10T12:02:57;3.27;;;3.13;;
14396;SDS011;50653;0.000;0.000;2022-07-10T12:05:50;2.80;;;2.60;;
14396;SDS011;50653;0.000;0.000;2022-07-10T12:08:16;2.73;;;2.60;;
14396;SDS011;50653;0.000;0.000;2022-07-10T12:10:45;2.63;;;2.43;;
14396;SDS011;50653;0.000;0.000;2022-07-10T12:13:13;2.87;;;2.67;;
14396;SDS011;50653;0.000;0.000;2022-07-10T12:15:46;2.30;;;2.20;;
14396;SDS011;50653;0.000;0.000;2022-07-10T12:18:36;1.83;;;1.73;;
14396;SDS011;50653;0.000;0.000;2022-07-10T12:21:03;2.73;;;2.47;;
14396;SDS011;50653;0.000;0.000;2022-07-10T12:27:43;1.87;;;1.77;;
14396;SDS011;50653;0.000;0.000;2022-07-10T12:34:34;2.13;;;1.90;;
14396;SDS011;50653;0.000;0.000;2022-07-10T12:37:08;2.70;;;1.93;;
14396;SDS011;50653;0.000;0.000;2022-07-10T12:39:56;5.10;;;1.90;;
14396;SDS011;50653;0.000;0.000;2022-07-10T12:42:37;4.57;;;2.30;;
14396;SDS011;50653;0.000;0.000;2022-07-10T12:45:13;4.07;;;2.37;;
14396;SDS011;50653;0.000;0.000;2022-07-10T12:47:44;3.00;;;2.70;;
14396;SDS011;50653;0.000;0.000;2022-07-10T12:50:31;2.70;;;1.63;;
14396;SDS011;50653;0.000;0.000;2022-07-10T12:53:21;3.03;;;1.70;;
14396;SDS011;50653;0.000;0.000;2022-07-10T13:17:07;2.50;;;1.67;;
14396;SDS011;50653;0.000;0.000;2022-07-10T13:22:23;1.60;;;1.50;;
14396;SDS011;50653;0.000;0.000;2022-07-10T13:24:49;1.90;;;1.17;;
14396;SDS011;50653;0.000;0.000;2022-07-10T13:27:14;1.80;;;1.70;;
14396;SDS011;50653;0.000;0.000;2022-07-10T13:29:40;1.83;;;1.73;;
14396;SDS011;50653;0.000;0.000;2022-07-10T13:32:06;1.97;;;1.50;;
14396;SDS011;50653;0.000;0.000;2022-07-10T13:38:18;1.50;;;1.40;;
14396;SDS011;50653;0.000;0.000;2022-07-10T13:40:45;1.73;;;1.60;;
14396;SDS011;50653;0.000;0.000;2022-07-10T13:43:12;2.50;;;1.37;;
14396;SDS011;50653;0.000;0.000;2022-07-10T13:45:38;1.30;;;1.20;;
14396;SDS011;50653;0.000;0.000;2022-07-10T13:48:14;1.87;;;1.77;;
14396;SDS011;50653;0.000;0.000;2022-07-10T13:50:42;1.73;;;1.63;;
14396;SDS011;50653;0.000;0.000;2022-07-10T13:53:09;2.20;;;1.50;;
14396;SDS011;50653;0.000;0.000;2022-07-10T13:55:35;3.73;;;2.00;;
14396;SDS011;50653;0.000;0.000;2022-07-10T13:58:01;2.77;;;1.40;;
14396;SDS011;50653;0.000;0.000;2022-07-10T14:00:27;3.13;;;2.43;;
14396;SDS011;50653;0.000;0.000;2022-07-10T14:02:53;5.03;;;1.67;;
14396;SDS011;50653;0.000;0.000;2022-07-10T14:05:21;2.13;;;1.93;;
14396;SDS011;50653;0.000;0.000;2022-07-10T14:07:47;3.10;;;1.70;;
14396;SDS011;50653;0.000;0.000;2022-07-10T14:10:13;1.50;;;1.40;;
14396;SDS011;50653;0.000;0.000;2022-07-10T14:12:40;3.77;;;2.03;;
14396;SDS011;50653;0.000;0.000;2022-07-10T14:15:06;1.50;;;1.40;;
14396;SDS011;50653;0.000;0.000;2022-07-10T14:17:32;4.40;;;1.83;;
14396;SDS011;50653;0.000;0.000;2022-07-10T14:19:58;3.20;;;1.80;;
14396;SDS011;50653;0.000;0.000;2022-07-10T14:22:23;3.57;;;1.53;;
14396;SDS011;50653;0.000;0.000;2022-07-10T14:24:50;2.47;;;2.20;;
14396;SDS011;50653;0.000;0.000;2022-07-10T14:27:16;2.93;;;1.70;;
14396;SDS011;50653;0.000;0.000;2022-07-10T14:29:42;1.97;;;1.63;;
14396;SDS011;50653;0.000;0.000;2022-07-10T14:32:08;1.77;;;1.47;;
14396;SDS011;50653;0.000;0.000;2022-07-10T14:34:34;1.60;;;1.30;;
14396;SDS011;50653;0.000;0.000;2022-07-10T14:37:00;3.40;;;1.53;;
14396;SDS011;50653;0.000;0.000;2022-07-10T14:39:26;2.10;;;1.60;;
14396;SDS011;50653;0.000;0.000;2022-07-10T14:41:52;1.40;;;1.30;;
14396;SDS011;50653;0.000;0.000;2022-07-10T14:44:17;1.30;;;1.20;;
14396;SDS011;50653;0.000;0.000;2022-07-10T14:46:43;1.83;;;1.33;;
14396;SDS011;50653;0.000;0.000;2022-07-10T14:49:09;3.17;;;1.73;;
14396;SDS011;50653;0.000;0.000;2022-07-10T14:51:35;1.57;;;1.47;;
14396;SDS011;50653;0.000;0.000;2022-07-10T14:54:01;2.13;;;1.50;;
14396;SDS011;50653;0.000;0.000;2022-07-10T14:56:27;3.13;;;1.37;;
14396;SDS011;50653;0.000;0.000;2022-07-10T14:58:52;6.30;;;1.10;;
14396;SDS011;50653;0.000;0.000;2022-07-10T15:01:18;1.77;;;1.67;;
14396;SDS011;50653;0.000;0.000;2022-07-10T15:03:43;4.83;;;1.30;;
14396;SDS011;50653;0.000;0.000;2022-07-10T15:06:09;1.47;;;1.30;;
14396;SDS011;50653;0.000;0.000;2022-07-10T15:08:35;2.80;;;1.60;;
14396;SDS011;50653;0.000;0.000;2022-07-10T15:11:01;1.40;;;1.03;;
14396;SDS011;50653;0.000;0.000;2022-07-10T15:13:27;2.70;;;1.23;;
14396;SDS011;50653;0.000;0.000;2022-07-10T15:15:53;1.63;;;1.40;;
14396;SDS011;50653;0.000;0.000;2022-07-10T15:18:19;3.83;;;1.30;;
14396;SDS011;50653;0.000;0.000;2022-07-10T15:20:46;1.43;;;1.33;;
14396;SDS011;50653;0.000;0.000;2022-07-10T15:23:12;5.10;;;1.60;;
14396;SDS011;50653;0.000;0.000;2022-07-10T15:25:38;1.47;;;1.37;;
14396;SDS011;50653;0.000;0.000;2022-07-10T15:28:08;1.60;;;1.50;;
14396;SDS011;50653;0.000;0.000;2022-07-10T15:30:34;1.87;;;1.67;;
14396;SDS011;50653;0.000;0.000;2022-07-10T15:33:01;1.30;;;1.20;;
14396;SDS011;50653;0.000;0.000;2022-07-10T15:35:31;1.13;;;1.03;;
14396;SDS011;50653;0.000;0.000;2022-07-10T15:37:57;1.40;;;1.20;;
14396;SDS011;50653;0.000;0.000;2022-07-10T15:40:24;1.27;;;0.90;;
14396;SDS011;50653;0.000;0.000;2022-07-10T15:42:51;3.37;;;1.10;;
14396;SDS011;50653;0.000;0.000;2022-07-10T15:45:17;3.27;;;1.57;;
14396;SDS011;50653;0.000;0.000;2022-07-10T15:47:43;1.77;;;1.07;;
14396;SDS011;50653;0.000;0.000;2022-07-10T15:50:08;6.00;;;1.40;;
14396;SDS011;50653;0.000;0.000;2022-07-10T15:52:34;3.00;;;1.70;;
14396;SDS011;50653;0.000;0.000;2022-07-10T15:55:10;2.23;;;1.27;;
14396;SDS011;50653;0.000;0.000;2022-07-10T15:57:37;2.70;;;1.60;;
14396;SDS011;50653;0.000;0.000;2022-07-10T16:00:04;1.47;;;1.03;;
14396;SDS011;50653;0.000;0.000;2022-07-10T16:02:31;1.60;;;1.27;;
14396;SDS011;50653;0.000;0.000;2022-07-10T16:04:57;2.13;;;1.30;;
14396;SDS011;50653;0.000;0.000;2022-07-10T16:07:23;3.43;;;1.10;;
14396;SDS011;50653;0.000;0.000;2022-07-10T16:09:48;2.97;;;1.17;;
14396;SDS011;50653;0.000;0.000;2022-07-10T16:12:15;1.93;;;1.10;;
14396;SDS011;50653;0.000;0.000;2022-07-10T16:14:40;1.67;;;1.37;;
14396;SDS011;50653;0.000;0.000;2022-07-10T16:17:06;1.23;;;1.10;;
14396;SDS011;50653;0.000;0.000;2022-07-10T16:19:32;2.20;;;1.20;;